Alaska, Minnesota
Current Conditions -  °F | °C
As of 9:53 PM on Friday 24 Oct 2014 (Local Time) from KBJI Reporting Station
Clear Clear  
Wind Chill: 15°   Ceiling: Unl
Heat Index: 15°   Visibility: 10mi
Dew Point:   Wind: 17mph
Humidity: 37%   Direction: 280°W
Pressure: 29.82"   Gusts: 24mph
Location:  47.7369°N, 94.9947°W
Report Text: KBJI 250253Z AUTO 28015G21KT 10SM CLR 15/00 A2982 RMK AO2 T01450000
Loading
Personal Weather Stations






























Interactive Weather Map
Tropical Storm Tracking
New forecast layout! Learn more

10-Day Weather Forecast

Advertisements
Track Severe Weather on mobile